Time;durP1;ratioP1;P1;durP2;ratioP2;P2;SDS_P1;SDS_P2;PMS_P1;PMS_P2;Temp;Humidity;BMP_temperature;BMP_pressure;BME280_temperature;BME280_humidity;BME280_pressure;Samples;Min_cycle;Max_cycle;Signal;HPM_P1;HPM_P2
2022/04/16 00:00:52;;;;;;;16.60;14.95;;;11.70;92.00;;;;;;4974127;28;20106;-66
2022/04/16 00:03:19;;;;;;;17.08;15.48;;;11.60;92.20;;;;;;4974419;28;20096;-66
2022/04/16 00:05:44;;;;;;;18.05;16.25;;;11.60;92.20;;;;;;4974520;28;20035;-66
2022/04/16 00:08:10;;;;;;;16.42;14.82;;;11.80;91.60;;;;;;4974427;28;20388;-66
2022/04/16 00:10:37;;;;;;;18.00;16.30;;;11.90;91.40;;;;;;4974276;28;20035;-67
2022/04/16 00:13:03;;;;;;;18.15;16.40;;;11.70;91.60;;;;;;4974437;28;20023;-65
2022/04/16 00:15:29;;;;;;;17.02;15.32;;;11.70;91.80;;;;;;4974081;28;20026;-66
2022/04/16 00:17:55;;;;;;;17.08;15.38;;;11.70;91.80;;;;;;4974751;28;20031;-66
2022/04/16 00:20:24;;;;;;;18.80;16.92;;;11.60;91.80;;;;;;4974198;28;20047;-66
2022/04/16 00:22:54;;;;;;;17.17;15.48;;;11.70;91.50;;;;;;4956976;28;20019;-66
2022/04/16 00:25:20;;;;;;;17.48;15.70;;;11.60;91.90;;;;;;4974198;28;20034;-66
2022/04/16 00:27:49;;;;;;;18.40;16.65;;;11.70;91.50;;;;;;4974288;28;20031;-66
2022/04/16 00:30:17;;;;;;;17.80;16.05;;;11.70;91.60;;;;;;4974057;28;20050;-66
2022/04/16 00:32:44;;;;;;;18.98;17.05;;;11.50;91.90;;;;;;4973721;28;20521;-65
2022/04/16 00:35:10;;;;;;;18.23;16.42;;;11.60;91.80;;;;;;4974332;28;20448;-65
2022/04/16 00:37:36;;;;;;;16.98;15.40;;;11.60;91.80;;;;;;4974222;28;20485;-66
2022/04/16 00:40:02;;;;;;;17.23;15.63;;;11.80;91.50;;;;;;4974152;28;20026;-66
2022/04/16 00:42:36;;;;;;;17.58;15.98;;;11.50;91.70;;;;;;4973960;28;20023;-65
2022/04/16 00:45:02;;;;;;;17.40;15.75;;;11.50;92.00;;;;;;4973700;28;20093;-66
2022/04/16 00:47:28;;;;;;;18.42;16.63;;;11.70;91.60;;;;;;4974067;28;20026;-65
2022/04/16 00:49:54;;;;;;;17.65;16.05;;;11.60;91.70;;;;;;4974242;28;20502;-64
2022/04/16 00:52:21;;;;;;;17.88;16.27;;;11.80;91.30;;;;;;4977838;28;20015;-62
2022/04/16 00:54:48;;;;;;;17.83;15.98;;;11.70;91.40;;;;;;4977851;28;20035;-66
2022/04/16 00:57:15;;;;;;;19.13;17.33;;;11.60;91.70;;;;;;4977985;28;20127;-67
2022/04/16 00:59:40;;;;;;;18.30;16.50;;;11.60;91.60;;;;;;4977450;28;20069;-65
2022/04/16 01:02:08;;;;;;;18.63;16.75;;;11.50;92.00;;;;;;4977913;28;20022;-68
2022/04/16 01:04:33;;;;;;;18.25;16.42;;;11.40;92.00;;;;;;4977690;28;20035;-65
2022/04/16 01:06:59;;;;;;;19.73;17.92;;;11.60;91.80;;;;;;4977926;28;20534;-66
2022/04/16 01:09:24;;;;;;;20.17;18.10;;;11.40;92.20;;;;;;4977559;28;20034;-58
2022/04/16 01:11:50;;;;;;;19.20;17.33;;;11.30;92.40;;;;;;4977680;28;20104;-65
2022/04/16 01:14:19;;;;;;;19.40;17.55;;;11.50;92.00;;;;;;4977214;28;20030;-64
2022/04/16 01:16:45;;;;;;;19.55;17.63;;;11.20;92.30;;;;;;4977492;28;20029;-61
2022/04/16 01:19:11;;;;;;;20.13;18.13;;;11.20;92.50;;;;;;4977363;28;20110;-65
2022/04/16 01:21:36;;;;;;;19.52;17.67;;;11.30;92.20;;;;;;4977472;28;20019;-66
2022/04/16 01:24:03;;;;;;;20.67;18.67;;;11.30;92.20;;;;;;4977460;28;20056;-66
2022/04/16 01:26:29;;;;;;;19.77;17.88;;;11.40;92.10;;;;;;4977274;28;20055;-66
2022/04/16 01:28:54;;;;;;;19.92;18.13;;;11.50;91.90;;;;;;4976994;28;20027;-66
2022/04/16 01:31:20;;;;;;;20.55;18.58;;;11.40;91.80;;;;;;4959903;28;20039;-64
2022/04/16 01:33:45;;;;;;;18.85;17.13;;;11.30;92.30;;;;;;4976854;28;20023;-58
2022/04/16 01:36:12;;;;;;;19.92;18.02;;;11.30;92.20;;;;;;4977338;28;20102;-65
2022/04/16 01:38:37;;;;;;;19.52;17.67;;;11.30;92.20;;;;;;4977112;28;20119;-65
2022/04/16 01:41:04;;;;;;;19.92;17.95;;;11.20;92.60;;;;;;4977235;28;20112;-55
2022/04/16 01:43:29;;;;;;;20.17;18.02;;;11.00;93.00;;;;;;4976590;28;20045;-64
2022/04/16 01:45:56;;;;;;;19.15;17.30;;;10.90;93.00;;;;;;4959595;28;20534;-66
2022/04/16 01:48:27;;;;;;;21.90;18.58;;;10.90;92.80;;;;;;4977131;28;20408;-64
2022/04/16 01:50:53;;;;;;;20.95;18.77;;;10.90;93.20;;;;;;4980400;28;20027;-65
2022/04/16 01:53:19;;;;;;;18.95;17.25;;;11.00;93.00;;;;;;4974880;28;20078;-66
2022/04/16 01:55:45;;;;;;;21.33;19.23;;;11.20;92.60;;;;;;4976228;28;20072;-66
2022/04/16 01:58:11;;;;;;;20.90;18.63;;;11.00;92.90;;;;;;4976576;28;20106;-63
2022/04/16 02:00:37;;;;;;;19.92;17.90;;;11.10;92.60;;;;;;4976921;28;20023;-66
2022/04/16 02:03:02;;;;;;;19.27;17.48;;;10.90;93.00;;;;;;4976244;28;20038;-65
2022/04/16 02:05:28;;;;;;;20.05;18.05;;;10.90;93.20;;;;;;4976570;28;20039;-65
2022/04/16 02:07:54;;;;;;;19.90;18.02;;;10.90;93.20;;;;;;4976616;28;20358;-65
2022/04/16 02:10:20;;;;;;;19.38;17.30;;;10.90;93.10;;;;;;4976458;28;20027;-55
2022/04/16 02:12:46;;;;;;;21.10;18.20;;;11.00;93.10;;;;;;4976259;28;20030;-65
2022/04/16 02:15:12;;;;;;;20.77;18.67;;;11.00;92.90;;;;;;4976788;28;20050;-66
2022/04/16 02:17:38;;;;;;;20.02;17.58;;;11.10;92.80;;;;;;4976603;28;20106;-66
2022/04/16 02:20:06;;;;;;;20.05;18.05;;;11.10;92.60;;;;;;4976001;28;20031;-54
2022/04/16 02:22:46;;;;;;;22.52;18.50;;;11.00;93.00;;;;;;4976397;28;20022;-66
2022/04/16 02:25:16;;;;;;;19.55;16.73;;;11.00;93.10;;;;;;4976074;28;20035;-66
2022/04/16 02:27:43;;;;;;;19.10;17.13;;;10.90;93.00;;;;;;4975255;28;20130;-65
2022/04/16 02:30:12;;;;;;;19.52;17.60;;;11.00;92.90;;;;;;4976111;28;20022;-67
2022/04/16 02:32:45;;;;;;;20.95;18.85;;;11.00;92.90;;;;;;4976178;28;20118;-64
2022/04/16 02:35:13;;;;;;;19.20;17.30;;;11.10;92.80;;;;;;4974733;28;20062;-63
2022/04/16 02:37:39;;;;;;;21.65;18.38;;;10.90;93.20;;;;;;4976065;28;20105;-66
2022/04/16 02:40:06;;;;;;;19.30;17.40;;;10.80;93.30;;;;;;4975598;28;20561;-60
2022/04/16 02:42:36;;;;;;;19.05;17.15;;;10.80;93.40;;;;;;4975783;28;20022;-62
2022/04/16 02:47:49;;;;;;;19.73;17.70;;;10.90;93.20;;;;;;4976542;28;20094;-63
2022/04/16 02:50:15;;;;;;;20.95;18.73;;;10.90;93.20;;;;;;4975801;28;20042;-66
2022/04/16 02:52:41;;;;;;;20.65;18.33;;;10.80;93.30;;;;;;4975854;28;20027;-66
2022/04/16 02:55:07;;;;;;;20.17;17.85;;;10.80;93.20;;;;;;4975153;28;20081;-65
2022/04/16 02:57:33;;;;;;;22.13;19.08;;;10.60;93.60;;;;;;4975828;28;20027;-66
2022/04/16 02:59:59;;;;;;;25.75;19.70;;;10.60;93.60;;;;;;4975507;28;20038;-66
2022/04/16 03:02:24;;;;;;;20.70;18.73;;;10.50;93.80;;;;;;4975705;28;20034;-67
2022/04/16 03:04:50;;;;;;;20.75;18.55;;;10.70;93.40;;;;;;4975238;28;20030;-66
2022/04/16 03:07:17;;;;;;;21.27;19.10;;;10.50;93.80;;;;;;4975861;28;20027;-66
2022/04/16 03:09:42;;;;;;;22.00;19.67;;;10.50;93.90;;;;;;4975187;28;20026;-66
2022/04/16 03:12:08;;;;;;;22.70;20.20;;;10.50;93.70;;;;;;4975383;28;20035;-66
2022/04/16 03:17:33;;;;;;;23.98;21.30;;;10.60;93.50;;;;;;4975864;28;20041;-66
2022/04/16 03:19:59;;;;;;;23.45;21.00;;;10.60;93.70;;;;;;4974886;28;20050;-59
2022/04/16 03:22:25;;;;;;;25.02;22.50;;;10.50;93.70;;;;;;4975441;28;20033;-66
2022/04/16 03:24:53;;;;;;;24.70;22.17;;;10.50;93.70;;;;;;4974836;28;20035;-66
2022/04/16 03:27:19;;;;;;;23.98;21.55;;;10.40;93.90;;;;;;4975063;28;20049;-66
2022/04/16 03:29:44;;;;;;;25.48;22.80;;;10.40;93.70;;;;;;4975090;28;20482;-66
2022/04/16 03:32:10;;;;;;;32.75;24.13;;;10.40;93.90;;;;;;4975097;28;20026;-66
2022/04/16 03:34:37;;;;;;;27.50;24.05;;;10.50;93.90;;;;;;4975055;28;20054;-65
2022/04/16 03:37:03;;;;;;;26.40;23.30;;;10.50;93.70;;;;;;4975101;28;20035;-61
2022/04/16 03:39:28;;;;;;;27.15;23.80;;;10.50;93.90;;;;;;4974671;28;20030;-67
2022/04/16 03:41:54;;;;;;;28.45;24.40;;;10.50;93.90;;;;;;4974792;28;20523;-66
2022/04/16 03:44:20;;;;;;;26.98;23.55;;;10.40;94.00;;;;;;4974898;28;20502;-66
2022/04/16 03:46:46;;;;;;;27.25;24.40;;;10.30;94.30;;;;;;4974460;28;20110;-57
2022/04/16 03:49:11;;;;;;;27.52;24.38;;;10.30;94.30;;;;;;4974758;28;20037;-63
2022/04/16 03:51:37;;;;;;;26.83;23.95;;;10.30;94.30;;;;;;4974570;28;20026;-66
2022/04/16 04:02:15;;;;;;;27.48;24.42;;;10.10;94.60;;;;;;4974677;28;20443;-64
2022/04/16 04:04:43;;;;;;;33.22;25.15;;;10.30;94.50;;;;;;4974433;28;20034;-65
2022/04/16 04:07:10;;;;;;;26.98;22.77;;;10.40;94.30;;;;;;4974177;28;20025;-61
2022/04/16 04:09:37;;;;;;;26.67;23.05;;;10.40;94.30;;;;;;4974768;28;20030;-66
2022/04/16 04:12:10;;;;;;;27.60;23.75;;;10.20;94.60;;;;;;4974568;28;20102;-62
2022/04/16 04:14:40;;;;;;;27.58;24.17;;;10.30;94.40;;;;;;4974665;28;20050;-66
2022/04/16 04:17:07;;;;;;;26.88;24.15;;;10.10;94.80;;;;;;4974465;28;20019;-67
2022/04/16 04:19:36;;;;;;;26.13;22.98;;;10.40;94.40;;;;;;4974169;28;20558;-66
2022/04/16 04:22:06;;;;;;;26.88;24.00;;;10.20;94.90;;;;;;4973769;28;20019;-66
2022/04/16 04:24:32;;;;;;;26.70;23.80;;;10.10;94.90;;;;;;4974255;28;20069;-66
2022/04/16 04:26:59;;;;;;;29.65;24.95;;;10.20;94.80;;;;;;4974063;28;20054;-65
2022/04/16 04:29:25;;;;;;;26.27;23.45;;;10.10;94.90;;;;;;4974181;28;20023;-66
2022/04/16 04:31:50;;;;;;;28.58;24.30;;;10.00;95.20;;;;;;4974066;28;20107;-66
2022/04/16 04:34:16;;;;;;;28.48;25.45;;;10.10;95.20;;;;;;4974274;28;20051;-66
2022/04/16 04:36:41;;;;;;;25.92;23.23;;;10.10;95.10;;;;;;4973687;28;20057;-65
2022/04/16 04:39:07;;;;;;;27.85;23.58;;;10.10;94.90;;;;;;4974135;28;20031;-66
2022/04/16 04:41:33;;;;;;;28.27;25.40;;;10.10;94.90;;;;;;4974189;28;20034;-66
2022/04/16 04:43:58;;;;;;;29.00;25.52;;;10.10;94.90;;;;;;4974018;28;20368;-66
2022/04/16 04:46:24;;;;;;;33.15;25.40;;;10.10;95.00;;;;;;4974310;28;20027;-65
2022/04/16 04:48:49;;;;;;;28.45;25.10;;;10.10;95.00;;;;;;4973870;28;20415;-66
2022/04/16 04:51:15;;;;;;;27.88;24.95;;;10.20;94.90;;;;;;4973925;28;20031;-66
2022/04/16 04:53:40;;;;;;;28.25;25.27;;;10.10;94.80;;;;;;4974040;28;20034;-54
2022/04/16 04:56:06;;;;;;;30.13;25.58;;;10.00;95.20;;;;;;4974109;28;20038;-66
2022/04/16 04:58:31;;;;;;;30.77;24.67;;;10.00;95.20;;;;;;4973953;28;20034;-66
2022/04/16 05:00:57;;;;;;;29.90;25.35;;;10.00;95.30;;;;;;4976920;28;20476;-60
2022/04/16 05:03:23;;;;;;;28.13;25.05;;;10.00;95.40;;;;;;4966751;28;20074;-66
2022/04/16 05:05:49;;;;;;;29.23;25.95;;;9.90;95.60;;;;;;4972799;28;20065;-66
2022/04/16 05:08:14;;;;;;;30.63;24.60;;;9.90;95.50;;;;;;4972403;28;20023;-66
2022/04/16 05:10:40;;;;;;;27.90;24.98;;;9.90;95.60;;;;;;4973893;28;20121;-66
2022/04/16 05:13:06;;;;;;;29.52;24.80;;;9.80;95.80;;;;;;4973722;28;20491;-66
2022/04/16 05:15:31;;;;;;;28.85;25.75;;;9.90;95.70;;;;;;4974032;28;20500;-65
2022/04/16 05:17:57;;;;;;;30.27;27.08;;;10.00;95.60;;;;;;4974071;28;20023;-66
2022/04/16 05:20:22;;;;;;;28.52;25.52;;;10.10;95.30;;;;;;4973382;28;20046;-66
2022/04/16 05:22:48;;;;;;;29.92;26.83;;;10.10;95.10;;;;;;4973838;28;20014;-66
2022/04/16 05:25:14;;;;;;;32.80;27.10;;;10.20;95.10;;;;;;4973716;28;20034;-66
2022/04/16 05:27:40;;;;;;;32.60;26.85;;;10.10;95.30;;;;;;4973759;28;20069;-64
2022/04/16 05:30:22;;;;;;;30.38;27.17;;;10.10;95.40;;;;;;4973695;28;20176;-66
2022/04/16 05:32:50;;;;;;;30.05;25.98;;;10.10;95.40;;;;;;4973499;28;20465;-61
2022/04/16 05:35:16;;;;;;;30.70;26.90;;;10.10;95.40;;;;;;4956568;28;20433;-66
2022/04/16 05:37:42;;;;;;;29.83;26.63;;;9.90;95.80;;;;;;4976391;28;20130;-67
2022/04/16 05:40:09;;;;;;;33.97;28.63;;;10.00;95.80;;;;;;4976972;28;20023;-66
2022/04/16 05:42:42;;;;;;;32.85;27.33;;;10.00;96.00;;;;;;4977327;28;20417;-60
2022/04/16 05:45:09;;;;;;;32.28;26.17;;;10.10;95.70;;;;;;4976641;28;20118;-65
2022/04/16 05:47:35;;;;;;;33.95;27.67;;;10.00;96.00;;;;;;4977380;28;20027;-66
2022/04/16 05:50:00;;;;;;;33.63;29.13;;;10.10;95.70;;;;;;4976565;28;20392;-66
2022/04/16 05:52:26;;;;;;;30.90;27.60;;;10.00;96.10;;;;;;4977004;28;20120;-66
2022/04/16 05:54:53;;;;;;;31.70;27.60;;;10.10;95.80;;;;;;4976715;28;20034;-66
2022/04/16 05:57:20;;;;;;;31.80;28.33;;;10.10;95.90;;;;;;4976844;28;20019;-65
2022/04/16 05:59:46;;;;;;;31.13;27.67;;;10.00;96.10;;;;;;4976633;28;20053;-66
2022/04/16 06:02:12;;;;;;;31.58;28.00;;;10.10;96.10;;;;;;4976828;28;20464;-66
2022/04/16 06:04:37;;;;;;;31.98;27.95;;;10.20;96.20;;;;;;4976374;28;20094;-66
2022/04/16 06:07:03;;;;;;;28.52;25.65;;;10.30;96.00;;;;;;4959546;28;20477;-65
2022/04/16 06:09:29;;;;;;;31.20;27.95;;;10.10;96.30;;;;;;4976435;28;20019;-67
2022/04/16 06:12:02;;;;;;;30.50;27.30;;;10.10;96.20;;;;;;4976564;28;20499;-66
2022/04/16 06:14:28;;;;;;;29.58;26.38;;;10.40;96.20;;;;;;4976445;28;20034;-66
2022/04/16 06:16:53;;;;;;;29.70;26.65;;;10.60;95.30;;;;;;4976452;28;20106;-65
2022/04/16 06:19:19;;;;;;;31.35;27.98;;;10.80;95.00;;;;;;4975925;28;20093;-68
2022/04/16 06:21:44;;;;;;;29.80;26.63;;;10.80;95.00;;;;;;4976400;28;20022;-66
2022/04/16 06:24:10;;;;;;;29.38;26.58;;;10.80;94.90;;;;;;4976085;28;20035;-62
2022/04/16 06:26:35;;;;;;;33.17;26.58;;;11.00;94.40;;;;;;4976452;28;20388;-63
2022/04/16 06:29:01;;;;;;;30.13;25.40;;;11.00;94.40;;;;;;4976020;28;20023;-66
2022/04/16 06:31:27;;;;;;;30.38;25.35;;;11.10;94.20;;;;;;4976473;28;20133;-66
2022/04/16 06:33:52;;;;;;;28.10;24.58;;;11.20;94.20;;;;;;4975763;28;20644;-65
2022/04/16 06:36:18;;;;;;;29.13;25.83;;;11.00;94.50;;;;;;4975852;28;20483;-67
2022/04/16 06:38:43;;;;;;;27.67;23.95;;;11.00;94.30;;;;;;4976197;28;20027;-66
2022/04/16 06:41:09;;;;;;;28.15;25.17;;;11.20;94.10;;;;;;4975924;28;20468;-66
2022/04/16 06:43:34;;;;;;;27.88;25.00;;;11.40;94.00;;;;;;4976168;28;20023;-66
2022/04/16 06:46:00;;;;;;;26.88;24.05;;;11.50;93.90;;;;;;4975618;28;20057;-65
2022/04/16 06:48:25;;;;;;;26.63;23.73;;;11.40;93.70;;;;;;4975851;28;20468;-67
2022/04/16 06:50:51;;;;;;;27.60;24.60;;;11.50;93.50;;;;;;4975780;28;20035;-65
2022/04/16 06:53:16;;;;;;;27.60;24.63;;;11.50;93.70;;;;;;4975705;28;20027;-66
2022/04/16 06:55:43;;;;;;;26.92;22.67;;;11.70;93.20;;;;;;4975602;28;20034;-66
2022/04/16 06:58:09;;;;;;;28.52;24.40;;;11.50;93.30;;;;;;4975526;28;20485;-65
2022/04/16 07:00:34;;;;;;;26.58;23.83;;;11.60;93.70;;;;;;4975602;28;20027;-65
2022/04/16 07:03:00;;;;;;;27.05;24.25;;;11.70;93.30;;;;;;4975357;28;20384;-66
2022/04/16 07:05:25;;;;;;;26.30;23.52;;;11.70;93.40;;;;;;4975407;28;20039;-56
2022/04/16 07:07:51;;;;;;;26.30;23.48;;;11.80;93.10;;;;;;4975478;28;20072;-65
2022/04/16 07:10:17;;;;;;;25.80;23.08;;;11.90;93.00;;;;;;4975137;28;20031;-60
2022/04/16 07:12:42;;;;;;;25.33;22.45;;;12.10;92.80;;;;;;4975338;28;20019;-62
2022/04/16 07:15:08;;;;;;;27.33;24.33;;;12.10;92.50;;;;;;4975006;28;20027;-57
2022/04/16 07:17:34;;;;;;;28.38;23.55;;;12.20;92.40;;;;;;4974956;28;20150;-60
2022/04/16 07:19:59;;;;;;;25.92;23.13;;;12.10;92.50;;;;;;4974885;28;20086;-57
2022/04/16 07:22:25;;;;;;;25.30;22.67;;;12.20;91.90;;;;;;4975017;28;20026;-65
2022/04/16 07:24:51;;;;;;;26.00;22.05;;;12.30;92.40;;;;;;4975144;28;20484;-58
2022/04/16 07:27:17;;;;;;;24.08;21.58;;;12.30;92.00;;;;;;4974847;28;20495;-58
2022/04/16 07:29:43;;;;;;;23.42;21.05;;;12.20;92.10;;;;;;4975244;28;20113;-66
2022/04/16 07:32:08;;;;;;;24.15;21.63;;;12.40;91.90;;;;;;4974623;28;20089;-67
2022/04/16 07:34:34;;;;;;;22.13;19.90;;;12.50;91.70;;;;;;4975280;28;20540;-55
2022/04/16 07:36:59;;;;;;;22.60;20.20;;;12.70;91.20;;;;;;4974916;28;20023;-61
2022/04/16 07:39:25;;;;;;;23.27;21.00;;;12.80;91.10;;;;;;4975156;28;20037;-66
2022/04/16 07:41:51;;;;;;;22.02;19.75;;;12.70;91.10;;;;;;4974668;28;20037;-55
2022/04/16 07:44:18;;;;;;;22.85;20.50;;;12.80;91.20;;;;;;4974557;28;20023;-54
2022/04/16 07:46:43;;;;;;;22.90;20.60;;;13.00;90.50;;;;;;4974847;28;20042;-66
2022/04/16 07:49:09;;;;;;;21.55;19.45;;;12.90;90.60;;;;;;4974744;28;20026;-65
2022/04/16 07:51:34;;;;;;;23.20;19.70;;;13.00;90.90;;;;;;4974823;28;20034;-60
2022/04/16 07:54:00;;;;;;;21.65;19.40;;;12.90;90.80;;;;;;4974641;28;20527;-65
2022/04/16 07:56:26;;;;;;;21.13;19.00;;;13.00;90.40;;;;;;4974487;28;20026;-62
2022/04/16 07:58:53;;;;;;;21.50;19.45;;;13.00;90.50;;;;;;4974263;28;20513;-62
2022/04/16 08:01:19;;;;;;;22.52;20.30;;;12.80;90.80;;;;;;4974558;28;20404;-58
2022/04/16 08:03:45;;;;;;;20.00;18.02;;;13.00;90.50;;;;;;4974567;28;20535;-66
2022/04/16 08:06:11;;;;;;;20.30;18.23;;;13.20;90.70;;;;;;4974194;28;20043;-60
2022/04/16 08:08:37;;;;;;;20.02;17.92;;;13.40;90.10;;;;;;4974703;28;20480;-55
2022/04/16 08:11:02;;;;;;;19.40;17.30;;;13.50;88.60;;;;;;4974341;28;20030;-54
2022/04/16 08:13:28;;;;;;;20.10;17.35;;;13.30;89.30;;;;;;4974247;28;20027;-66
2022/04/16 08:15:53;;;;;;;19.83;17.83;;;13.30;90.00;;;;;;4974592;28;20557;-62
2022/04/16 08:18:19;;;;;;;19.15;17.15;;;13.40;89.50;;;;;;4974439;28;20035;-67
2022/04/16 08:20:45;;;;;;;20.80;18.38;;;13.30;89.60;;;;;;4974449;28;20121;-67
2022/04/16 08:23:11;;;;;;;17.60;15.80;;;13.40;90.10;;;;;;4974105;28;20105;-63
2022/04/16 08:28:05;;;;;;;20.85;17.25;;;13.60;88.80;;;;;;4974998;28;20019;-66
2022/04/16 08:30:31;;;;;;;20.88;17.70;;;13.70;89.90;;;;;;4989659;28;20023;-62
2022/04/16 08:32:56;;;;;;;19.13;16.98;;;13.80;88.50;;;;;;4992983;28;20420;-67
2022/04/16 08:35:22;;;;;;;15.48;13.88;;;13.90;88.60;;;;;;4993143;28;20169;-66
2022/04/16 08:37:49;;;;;;;18.05;16.02;;;13.90;88.20;;;;;;4993481;28;20026;-67
2022/04/16 08:40:16;;;;;;;19.13;16.20;;;14.00;87.50;;;;;;4993019;28;20391;-54
2022/04/16 08:42:44;;;;;;;16.52;14.93;;;13.90;87.60;;;;;;4991098;28;20026;-58
2022/04/16 08:45:10;;;;;;;16.23;14.50;;;14.00;88.20;;;;;;4984390;28;20031;-57
2022/04/16 08:47:38;;;;;;;17.13;14.73;;;14.20;87.40;;;;;;4976934;28;20110;-65
2022/04/16 08:50:05;;;;;;;15.90;14.20;;;14.40;85.60;;;;;;4990560;28;20503;-57
2022/04/16 08:52:34;;;;;;;16.67;14.90;;;14.40;84.60;;;;;;4978870;28;20015;-54
2022/04/16 08:55:02;;;;;;;14.30;12.57;;;14.30;84.80;;;;;;4986273;28;20027;-65
2022/04/16 08:57:27;;;;;;;17.35;15.55;;;14.20;85.80;;;;;;4988194;28;20089;-68
2022/04/16 08:59:54;;;;;;;14.73;13.35;;;14.40;84.70;;;;;;4979377;28;20023;-65
2022/04/16 09:02:21;;;;;;;14.85;13.45;;;14.30;84.30;;;;;;4987869;28;20030;-57
2022/04/16 09:04:48;;;;;;;17.80;14.50;;;14.40;83.60;;;;;;4983441;28;20038;-67
2022/04/16 09:07:15;;;;;;;9.60;8.50;;;14.60;83.50;;;;;;4985557;28;20480;-64
2022/04/16 09:09:41;;;;;;;11.50;10.30;;;15.00;83.60;;;;;;4988874;28;20035;-67
2022/04/16 09:12:16;;;;;;;12.05;10.85;;;14.90;79.40;;;;;;4994303;28;20018;-66
2022/04/16 09:14:44;;;;;;;11.95;10.68;;;14.90;79.20;;;;;;4996673;28;20077;-67
2022/04/16 09:17:16;;;;;;;5.75;4.75;;;14.70;80.10;;;;;;4997021;28;20018;-69
2022/04/16 09:19:42;;;;;;;12.15;9.98;;;15.00;84.20;;;;;;4996125;28;20035;-67
2022/04/16 09:22:09;;;;;;;10.75;8.88;;;15.10;79.60;;;;;;4996836;28;20353;-60
2022/04/16 09:24:47;;;;;;;12.38;11.18;;;14.90;81.70;;;;;;4996417;28;20034;-65
2022/04/16 09:27:12;;;;;;;6.15;4.85;;;14.90;77.60;;;;;;4996449;28;20023;-65
2022/04/16 09:29:40;;;;;;;8.52;7.63;;;14.90;82.70;;;;;;4996221;28;20368;-66
2022/04/16 09:32:07;;;;;;;14.90;13.40;;;15.10;81.90;;;;;;4996115;28;20101;-66
2022/04/16 09:34:32;;;;;;;12.73;11.52;;;15.20;78.30;;;;;;4996058;28;20037;-63
2022/04/16 09:37:10;;;;;;;12.80;11.10;;;15.00;79.90;;;;;;4996243;28;20027;-52
2022/04/16 09:39:36;;;;;;;10.13;9.13;;;15.00;78.40;;;;;;4996024;28;20034;-57
2022/04/16 09:42:02;;;;;;;11.25;9.77;;;14.90;78.60;;;;;;4995977;28;20026;-66
2022/04/16 09:44:29;;;;;;;11.80;10.70;;;14.90;76.20;;;;;;4978577;28;20026;-66
2022/04/16 09:46:55;;;;;;;9.32;8.40;;;14.70;78.10;;;;;;4996146;28;20124;-58
2022/04/16 09:49:22;;;;;;;10.23;9.23;;;14.60;76.50;;;;;;4996279;28;20029;-63
2022/04/16 09:51:49;;;;;;;10.93;8.38;;;14.60;76.60;;;;;;4996076;28;20035;-66
2022/04/16 09:54:16;;;;;;;10.43;9.48;;;14.60;76.80;;;;;;4990182;28;20077;-64
2022/04/16 09:56:47;;;;;;;12.63;10.00;;;14.70;76.90;;;;;;4991572;28;20026;-65
2022/04/16 09:59:14;;;;;;;13.18;10.23;;;14.70;77.30;;;;;;4979544;28;20042;-66
2022/04/16 10:01:46;;;;;;;4.43;3.97;;;14.80;77.60;;;;;;4981439;28;20031;-66
2022/04/16 10:04:19;;;;;;;10.48;6.65;;;15.00;81.00;;;;;;4980293;28;20030;-65
2022/04/16 10:06:45;;;;;;;;;;;15.50;78.10;;;;;;4991677;28;20092;-63
2022/04/16 10:09:13;;;;;;;10.27;8.27;;;15.50;76.50;;;;;;4984980;28;19910;-65
2022/04/16 10:14:31;;;;;;;10.38;8.77;;;15.20;75.80;;;;;;4992384;28;20084;-66
2022/04/16 10:17:25;;;;;;;9.95;8.80;;;15.10;76.80;;;;;;4993443;28;20031;-66
2022/04/16 10:19:53;;;;;;;9.18;7.20;;;15.10;75.80;;;;;;4983523;28;20038;-60
2022/04/16 10:22:25;;;;;;;10.43;7.55;;;15.10;74.20;;;;;;4993768;28;20486;-64
2022/04/16 10:24:56;;;;;;;7.00;6.30;;;15.10;74.50;;;;;;4986691;28;20030;-62
2022/04/16 10:27:23;;;;;;;5.78;5.15;;;15.20;73.80;;;;;;4983522;28;20029;-57
2022/04/16 10:29:49;;;;;;;6.25;5.18;;;15.30;73.40;;;;;;4988002;28;20085;-65
2022/04/16 10:32:16;;;;;;;6.45;5.80;;;15.30;72.70;;;;;;4988762;28;20085;-58
2022/04/16 10:34:42;;;;;;;7.63;5.82;;;15.40;72.40;;;;;;4988361;28;20041;-66
2022/04/16 10:37:19;;;;;;;5.97;4.95;;;15.40;72.80;;;;;;4991585;28;20365;-66
2022/04/16 10:39:47;;;;;;;6.30;5.13;;;15.40;72.30;;;;;;4986528;28;20472;-66
2022/04/16 10:42:13;;;;;;;9.20;5.72;;;15.50;70.70;;;;;;4987509;28;20031;-64
2022/04/16 10:44:48;;;;;;;8.05;5.47;;;15.40;71.30;;;;;;4987084;28;20537;-65
2022/04/16 10:47:14;;;;;;;7.47;5.00;;;15.50;70.30;;;;;;4987859;28;20686;-63
2022/04/16 10:49:41;;;;;;;5.82;4.60;;;15.40;70.40;;;;;;4994175;28;20030;-65
2022/04/16 10:52:28;;;;;;;5.82;5.20;;;15.40;69.40;;;;;;4994060;28;20022;-64
2022/04/16 10:55:07;;;;;;;5.70;5.10;;;15.40;69.90;;;;;;4993683;28;20033;-65
2022/04/16 10:57:33;;;;;;;5.63;5.03;;;15.40;69.30;;;;;;4993462;28;20037;-67
2022/04/16 11:00:12;;;;;;;6.15;5.55;;;15.40;69.90;;;;;;4993380;28;20027;-65
2022/04/16 11:02:38;;;;;;;6.97;5.53;;;15.50;69.50;;;;;;4993334;28;20468;-64
2022/04/16 11:05:05;;;;;;;7.35;5.70;;;15.40;70.30;;;;;;4994058;28;20081;-66
2022/04/16 11:07:35;;;;;;;7.47;5.10;;;15.50;69.40;;;;;;4992743;28;20376;-65
2022/04/16 11:10:02;;;;;;;7.15;5.70;;;15.50;68.70;;;;;;4993593;28;20361;-65
2022/04/16 11:12:29;;;;;;;5.38;4.85;;;15.40;70.00;;;;;;4993410;28;20018;-65
2022/04/16 11:14:55;;;;;;;7.30;5.57;;;15.60;70.30;;;;;;4994289;28;20030;-67
2022/04/16 11:17:21;;;;;;;7.13;5.88;;;15.60;69.70;;;;;;4993682;28;20121;-65
2022/04/16 11:20:02;;;;;;;7.75;6.22;;;15.70;69.00;;;;;;4993430;28;20061;-67
2022/04/16 11:22:28;;;;;;;7.50;6.57;;;15.60;68.80;;;;;;4993154;28;20395;-62
2022/04/16 11:24:53;;;;;;;8.77;6.25;;;15.70;68.10;;;;;;4975950;28;20472;-66
2022/04/16 11:35:59;;;;;;;9.00;8.10;;;15.80;70.00;;;;;;4992903;28;20057;-55
2022/04/16 11:38:29;;;;;;;4.75;3.72;;;15.80;69.00;;;;;;4992811;28;20038;-66
2022/04/16 11:40:56;;;;;;;8.75;6.80;;;15.80;72.70;;;;;;4993723;28;20019;-53
2022/04/16 11:43:23;;;;;;;8.50;7.57;;;15.90;68.90;;;;;;4992725;28;20022;-65
2022/04/16 11:45:50;;;;;;;8.75;7.38;;;15.90;68.90;;;;;;4993092;28;20125;-55
2022/04/16 11:48:16;;;;;;;8.93;7.80;;;15.90;69.10;;;;;;4992988;28;20026;-66
2022/04/16 11:50:43;;;;;;;10.98;8.20;;;15.80;68.50;;;;;;4992699;28;20042;-66
2022/04/16 11:53:12;;;;;;;11.98;8.73;;;15.80;68.90;;;;;;4992171;28;20085;-62
2022/04/16 11:55:48;;;;;;;9.20;8.32;;;15.80;69.50;;;;;;4991888;28;20464;-66
2022/04/16 11:58:14;;;;;;;10.57;8.07;;;15.90;69.10;;;;;;4992024;28;20104;-66
2022/04/16 12:00:51;;;;;;;8.98;8.02;;;15.90;68.90;;;;;;4992437;28;20034;-63
2022/04/16 12:03:17;;;;;;;9.07;8.02;;;15.90;69.50;;;;;;4992669;28;20025;-65
2022/04/16 12:05:43;;;;;;;9.85;8.80;;;16.10;70.00;;;;;;4992942;28;20057;-66
2022/04/16 12:08:10;;;;;;;8.63;7.75;;;16.00;69.20;;;;;;4992109;28;20507;-65
2022/04/16 12:10:37;;;;;;;8.70;7.55;;;16.10;68.50;;;;;;4993013;28;20038;-62
2022/04/16 12:13:10;;;;;;;8.65;7.25;;;16.00;68.40;;;;;;4992633;28;20019;-63
2022/04/16 12:15:40;;;;;;;9.52;8.52;;;16.20;68.30;;;;;;4993056;28;20069;-60
2022/04/16 12:18:15;;;;;;;9.55;8.63;;;16.20;68.30;;;;;;4991421;28;20022;-65
2022/04/16 12:20:47;;;;;;;10.18;9.18;;;16.10;68.00;;;;;;4991958;28;20402;-62
2022/04/16 12:23:22;;;;;;;10.70;9.70;;;16.10;68.10;;;;;;4992417;28;20018;-66
2022/04/16 12:25:49;;;;;;;9.30;8.25;;;16.00;67.60;;;;;;4992058;28;20380;-66
2022/04/16 12:28:15;;;;;;;9.50;8.43;;;16.10;68.30;;;;;;4992247;28;20027;-62
2022/04/16 12:30:49;;;;;;;9.05;7.85;;;16.10;67.30;;;;;;4991746;28;20682;-65
2022/04/16 12:33:14;;;;;;;11.48;8.68;;;16.10;67.10;;;;;;4991350;28;20029;-56
2022/04/16 12:35:44;;;;;;;10.27;9.27;;;16.10;66.70;;;;;;4991870;28;20066;-66
2022/04/16 12:38:15;;;;;;;9.70;8.70;;;16.10;67.20;;;;;;4991450;28;20026;-57
2022/04/16 12:40:41;;;;;;;8.90;8.10;;;16.20;67.40;;;;;;4992480;28;20023;-61
2022/04/16 12:43:07;;;;;;;8.48;7.65;;;16.30;66.50;;;;;;4992082;28;20027;-63
2022/04/16 12:45:32;;;;;;;10.13;9.13;;;16.30;65.40;;;;;;4992603;28;20100;-65
2022/04/16 12:47:58;;;;;;;9.10;7.82;;;16.30;65.40;;;;;;4996416;28;20424;-64
2022/04/16 12:50:26;;;;;;;10.85;7.63;;;16.30;66.10;;;;;;4995850;28;20033;-66
2022/04/16 12:52:52;;;;;;;9.38;8.20;;;16.30;66.00;;;;;;4996592;28;20145;-66
2022/04/16 12:55:18;;;;;;;9.32;8.43;;;16.30;66.20;;;;;;4995500;28;20491;-59
2022/04/16 12:57:44;;;;;;;11.38;8.30;;;16.10;66.10;;;;;;4995684;28;20027;-66